createdAt,value
2022-11-29T00:00:08.515Z,1003.9
2022-11-29T00:01:10.499Z,1004.1
2022-11-29T00:02:11.635Z,1004.2
2022-11-29T00:03:13.614Z,1004.1
2022-11-29T00:04:15.569Z,1004.1
2022-11-29T00:05:17.498Z,1004.2
2022-11-29T00:06:19.532Z,1004.1
2022-11-29T00:07:21.565Z,1004.1
2022-11-29T00:08:23.499Z,1004.1
2022-11-29T00:09:25.494Z,1004.1
2022-11-29T00:10:27.493Z,1004.1
2022-11-29T00:11:29.600Z,1004.1
2022-11-29T00:12:31.519Z,1004.2
2022-11-29T00:13:33.478Z,1004.2
2022-11-29T00:14:34.478Z,1004.2
2022-11-29T00:15:35.479Z,1004.2
2022-11-29T00:16:36.570Z,1004.2
2022-11-29T00:17:38.559Z,1004.1
2022-11-29T00:18:40.479Z,1004.2
2022-11-29T00:19:42.574Z,1004.2
2022-11-29T00:20:44.543Z,1004.2
2022-11-29T00:21:46.447Z,1004.1
2022-11-29T00:22:47.459Z,1004.2
2022-11-29T00:23:48.540Z,1004.2
2022-11-29T00:24:49.434Z,1004.2
2022-11-29T00:25:50.458Z,1004.2
2022-11-29T00:26:51.499Z,1004.1
2022-11-29T00:27:52.498Z,1004.1
2022-11-29T00:28:53.478Z,1004.1
2022-11-29T00:29:54.456Z,1004.1
2022-11-29T00:30:55.480Z,1004.2
2022-11-29T00:31:56.443Z,1004.2
2022-11-29T00:32:57.460Z,1004.2
2022-11-29T00:33:58.536Z,1004.1
2022-11-29T00:35:02.972Z,1004.2
2022-11-29T00:36:02.579Z,1004.1
2022-11-29T00:37:04.526Z,1004.1
2022-11-29T00:38:06.499Z,1004.2
2022-11-29T00:39:08.545Z,1004.2
2022-11-29T00:40:10.499Z,1004.2
2022-11-29T00:41:11.563Z,1004.1
2022-11-29T00:42:12.486Z,1004.2
2022-11-29T00:43:13.499Z,1004.2
2022-11-29T00:44:20.051Z,1004.2
2022-11-29T00:45:17.520Z,1004.2
2022-11-29T00:46:18.563Z,1004.2
2022-11-29T00:47:20.459Z,1004.2
2022-11-29T00:48:21.508Z,1004.2
2022-11-29T00:49:22.479Z,1004.2
2022-11-29T00:50:23.526Z,1004.2
2022-11-29T00:51:24.479Z,1004.1
2022-11-29T00:52:25.499Z,1004.1
2022-11-29T00:53:26.488Z,1004.1
2022-11-29T00:54:27.498Z,1004.1
2022-11-29T00:55:28.539Z,1004.1
2022-11-29T00:56:30.498Z,1004.1
2022-11-29T00:57:32.540Z,1004.1
2022-11-29T00:58:34.499Z,1004.1
2022-11-29T00:59:36.539Z,1004.1
2022-11-29T01:00:38.527Z,1004.1
2022-11-29T01:01:40.615Z,1004.1
2022-11-29T01:02:41.679Z,1004.1
2022-11-29T01:03:43.486Z,1004.1
2022-11-29T01:04:45.708Z,1004.1
2022-11-29T01:05:47.551Z,1004
2022-11-29T01:06:49.519Z,1004
2022-11-29T01:07:50.568Z,1004.1
2022-11-29T01:08:51.463Z,1004
2022-11-29T01:09:52.481Z,1004.1
2022-11-29T01:10:53.499Z,1004.1
2022-11-29T01:11:54.482Z,1004.1
2022-11-29T01:12:55.524Z,1004.1
2022-11-29T01:13:56.539Z,1004.1
2022-11-29T01:14:57.482Z,1004.1
2022-11-29T01:15:58.521Z,1004.2
2022-11-29T01:17:00.518Z,1003.8
2022-11-29T01:18:02.499Z,1004.1
2022-11-29T01:19:04.558Z,1004.3
2022-11-29T01:20:06.522Z,1004.1
2022-11-29T01:21:08.527Z,1004.1
2022-11-29T01:22:09.519Z,1004.1
2022-11-29T01:23:10.558Z,1004.2
2022-11-29T01:24:11.508Z,1004.1
2022-11-29T01:25:12.600Z,1004.1
2022-11-29T01:26:14.540Z,1004.2
2022-11-29T01:27:16.500Z,1004.2
2022-11-29T01:28:17.499Z,1004.1
2022-11-29T01:29:18.540Z,1004.1
2022-11-29T01:30:19.561Z,1004.1
2022-11-29T01:31:21.541Z,1004.1
2022-11-29T01:32:22.479Z,1004.1
2022-11-29T01:33:24.619Z,1004.1
2022-11-29T01:34:26.500Z,1003.3
2022-11-29T01:35:27.479Z,1003.9
2022-11-29T01:36:28.549Z,1004
2022-11-29T01:37:30.560Z,1004
2022-11-29T01:38:32.498Z,1004.1
2022-11-29T01:39:34.559Z,1004.1
2022-11-29T01:40:36.559Z,1004.2
2022-11-29T01:41:38.613Z,1003.8
2022-11-29T01:42:40.519Z,1003.5
2022-11-29T01:43:41.479Z,1003.9
2022-11-29T01:44:42.850Z,1004.1
2022-11-29T01:45:43.551Z,1004.1
2022-11-29T01:46:45.585Z,1004.1
2022-11-29T01:47:47.560Z,1004.1
2022-11-29T01:48:49.479Z,1004.1
2022-11-29T01:49:50.567Z,1004.2
2022-11-29T01:50:51.459Z,1004.1
2022-11-29T01:51:52.546Z,1004.1
2022-11-29T01:52:53.523Z,1004.1
2022-11-29T01:53:54.520Z,1004.1
2022-11-29T01:54:55.533Z,1004.1
2022-11-29T01:55:56.643Z,1003.7
2022-11-29T01:56:58.504Z,1004.1
2022-11-29T01:58:00.639Z,1004.1
2022-11-29T01:59:02.560Z,1004.1
2022-11-29T02:00:04.719Z,1004.1
2022-11-29T02:01:06.547Z,1004.1
2022-11-29T02:02:07.608Z,1004.1
2022-11-29T02:03:08.499Z,1004.1
2022-11-29T02:06:56.625Z,1004.1
2022-11-29T02:07:57.604Z,1004.1
2022-11-29T02:08:58.501Z,1004.1
2022-11-29T02:10:00.999Z,1004.1
2022-11-29T02:11:02.599Z,1004
2022-11-29T02:12:04.599Z,1004.1
2022-11-29T02:13:06.541Z,1004
2022-11-29T02:14:08.540Z,1004.1
2022-11-29T02:15:10.561Z,1004
2022-11-29T02:16:12.660Z,1004
2022-11-29T02:17:14.540Z,1004
2022-11-29T02:18:16.600Z,1004
2022-11-29T02:19:18.520Z,1004
2022-11-29T02:20:19.580Z,1004
2022-11-29T02:21:20.579Z,1004
2022-11-29T02:22:21.523Z,1004
2022-11-29T02:23:22.519Z,1004
2022-11-29T02:24:23.481Z,1004
2022-11-29T02:25:24.540Z,1004.1
2022-11-29T02:26:25.559Z,1004
2022-11-29T02:27:26.581Z,1004.1
2022-11-29T02:28:27.499Z,1004.1
2022-11-29T02:29:28.499Z,1004.1
2022-11-29T02:30:29.654Z,1004.1
2022-11-29T02:31:31.600Z,1004.1
2022-11-29T02:32:33.581Z,1004.1
2022-11-29T02:33:35.659Z,1004.1
2022-11-29T02:34:37.525Z,1003.4
2022-11-29T02:35:38.599Z,1003.9
2022-11-29T02:36:40.562Z,1004
2022-11-29T02:37:41.547Z,1004.1
2022-11-29T02:38:42.640Z,1004.1
2022-11-29T02:39:44.630Z,1004.1
2022-11-29T02:40:46.599Z,1004.1
2022-11-29T02:41:48.559Z,1004.2
2022-11-29T02:42:55.952Z,1003.8
2022-11-29T02:43:52.656Z,1004
2022-11-29T02:44:54.580Z,1004.2
2022-11-29T02:45:55.552Z,1004.1
2022-11-29T02:46:56.563Z,1004.2
2022-11-29T02:47:58.688Z,1004.2
2022-11-29T02:49:00.685Z,1004.2
2022-11-29T02:50:02.680Z,1004.2
2022-11-29T02:51:04.618Z,1004.2
2022-11-29T02:52:06.583Z,1004.3
2022-11-29T02:53:08.569Z,1004.2
2022-11-29T02:54:09.579Z,1004.3
2022-11-29T02:55:10.556Z,1004.3
2022-11-29T02:56:11.599Z,1004.3
2022-11-29T02:57:12.548Z,1004.4
2022-11-29T02:58:13.539Z,1004.3
2022-11-29T02:59:14.580Z,1004.3
2022-11-29T03:00:16.679Z,1004.3
2022-11-29T03:01:18.801Z,1004.3
2022-11-29T03:02:20.548Z,1004.3
2022-11-29T03:03:21.519Z,1004.3
2022-11-29T03:04:22.599Z,1004.3
2022-11-29T03:05:23.580Z,1004.3
2022-11-29T03:06:24.600Z,1004.3
2022-11-29T03:07:25.604Z,1004.3
2022-11-29T03:08:26.648Z,1004.4
2022-11-29T03:09:27.600Z,1004.4
2022-11-29T03:10:28.559Z,1004.3
2022-11-29T03:11:29.637Z,1004.4
2022-11-29T03:12:31.600Z,1004.3
2022-11-29T03:13:33.600Z,1004.4
2022-11-29T03:14:35.738Z,1004.4
2022-11-29T03:15:37.673Z,1004.4
2022-11-29T03:16:42.956Z,1004.4
2022-11-29T03:17:41.559Z,1004.4
2022-11-29T03:18:42.609Z,1004.4
2022-11-29T03:19:43.601Z,1004.4
2022-11-29T03:20:45.599Z,1004.5
2022-11-29T03:21:47.599Z,1004.5
2022-11-29T03:22:49.708Z,1004.5
2022-11-29T03:23:51.607Z,1004.5
2022-11-29T03:24:53.559Z,1004.5
2022-11-29T03:25:54.561Z,1004.1
2022-11-29T03:26:55.581Z,1004.4
2022-11-29T03:27:56.587Z,1004.5
2022-11-29T03:28:57.580Z,1004.4
2022-11-29T03:29:58.579Z,1004.4
2022-11-29T03:30:59.705Z,1004.4
2022-11-29T03:32:01.599Z,1004.4
2022-11-29T03:33:03.646Z,1004.5
2022-11-29T03:34:06.039Z,1004.5
2022-11-29T03:35:07.599Z,1004.5
2022-11-29T03:36:09.686Z,1004.5
2022-11-29T03:37:11.537Z,1004.5
2022-11-29T03:38:12.639Z,1004.5
2022-11-29T03:39:13.727Z,1004.5
2022-11-29T03:40:14.625Z,1004.6
2022-11-29T03:41:16.647Z,1004.5
2022-11-29T03:42:17.600Z,1004.6
2022-11-29T03:43:18.600Z,1004.5
2022-11-29T03:44:19.578Z,1004.5
2022-11-29T03:45:20.579Z,1004.5
2022-11-29T03:46:21.755Z,1004.5
2022-11-29T03:47:22.619Z,1004.5
2022-11-29T03:48:23.659Z,1004.5
2022-11-29T03:49:24.619Z,1004.5
2022-11-29T03:50:25.619Z,1004.5
2022-11-29T03:51:26.629Z,1004.5
2022-11-29T03:52:27.622Z,1004.5
2022-11-29T03:53:29.571Z,1004.5
2022-11-29T03:54:31.623Z,1004.5
2022-11-29T03:55:33.605Z,1004.4
2022-11-29T03:56:35.605Z,1004.5
2022-11-29T03:57:37.560Z,1004.5
2022-11-29T03:58:38.561Z,1004.5
2022-11-29T03:59:40.557Z,1004.5
2022-11-29T04:00:42.580Z,1004.4
2022-11-29T04:01:43.677Z,1004.6
2022-11-29T04:02:45.668Z,1004.5
2022-11-29T04:03:47.619Z,1004.5
2022-11-29T04:04:49.555Z,1004.5
2022-11-29T04:05:51.640Z,1004.5
2022-11-29T04:06:53.642Z,1004.5
2022-11-29T04:07:55.755Z,1004.5
2022-11-29T04:08:57.640Z,1004.5
2022-11-29T04:09:59.624Z,1004.5
2022-11-29T04:11:01.618Z,1004.5
2022-11-29T04:12:03.679Z,1004.5
2022-11-29T04:13:06.059Z,1004.5
2022-11-29T04:14:07.559Z,1004.5
2022-11-29T04:15:11.571Z,1004.5
2022-11-29T04:16:10.664Z,1004.5
2022-11-29T04:17:12.678Z,1004.6
2022-11-29T04:18:14.599Z,1004.5
2022-11-29T04:19:16.700Z,1004.5
2022-11-29T04:20:18.561Z,1004.5
2022-11-29T04:21:19.539Z,1004.5
2022-11-29T04:22:20.580Z,1004.7
2022-11-29T04:23:21.579Z,1004.6
2022-11-29T04:24:23.068Z,1004.6
2022-11-29T04:25:24.627Z,1004.6
2022-11-29T04:26:29.722Z,1004.7
2022-11-29T04:27:27.540Z,1004.7
2022-11-29T04:28:28.580Z,1004.7
2022-11-29T04:29:29.600Z,1004.7
2022-11-29T04:30:31.659Z,1004.8
2022-11-29T04:31:33.712Z,1004.7
2022-11-29T04:32:35.686Z,1004.7
2022-11-29T04:33:37.621Z,1004.7
2022-11-29T04:34:39.639Z,1004.7
2022-11-29T04:35:40.601Z,1004.8
2022-11-29T04:36:41.599Z,1004.7
2022-11-29T04:37:42.599Z,1004.7
2022-11-29T04:38:43.640Z,1004.7
2022-11-29T04:39:44.564Z,1004.7
2022-11-29T04:40:46.689Z,1004.7
2022-11-29T04:41:48.720Z,1004.7
2022-11-29T04:42:50.609Z,1004.4
2022-11-29T04:43:51.619Z,1004.6
2022-11-29T04:44:52.720Z,1004.7
2022-11-29T04:45:54.661Z,1004.8
2022-11-29T04:46:56.619Z,1004.9
2022-11-29T04:47:57.627Z,1004.8
2022-11-29T04:48:58.560Z,1004.8
2022-11-29T04:49:59.645Z,1004.8
2022-11-29T04:51:01.719Z,1004.8
2022-11-29T04:52:03.661Z,1004.8
2022-11-29T04:53:06.048Z,1004.9
2022-11-29T04:54:07.658Z,1004.9
2022-11-29T04:55:09.619Z,1004.8
2022-11-29T04:56:10.654Z,1004.8
2022-11-29T04:57:11.619Z,1004.8
2022-11-29T04:58:12.588Z,1004.7
2022-11-29T04:59:13.599Z,1004.8
2022-11-29T05:00:14.569Z,1004.7
2022-11-29T05:01:16.710Z,1004.5
2022-11-29T05:02:18.603Z,1004.8
2022-11-29T05:03:20.639Z,1004.9
2022-11-29T05:04:22.599Z,1004.9
2022-11-29T05:05:23.606Z,1004.8
2022-11-29T05:06:24.579Z,1004.9
2022-11-29T05:07:25.664Z,1004.8
2022-11-29T05:08:26.602Z,1004.8
2022-11-29T05:09:27.567Z,1004.9
2022-11-29T05:10:28.623Z,1004.8
2022-11-29T05:11:29.602Z,1004.9
2022-11-29T05:12:31.678Z,1004.8
2022-11-29T05:13:33.699Z,1004.8
2022-11-29T05:14:35.639Z,1004.8
2022-11-29T05:15:37.759Z,1004.8
2022-11-29T05:16:39.639Z,1004.9
2022-11-29T05:17:41.619Z,1004.9
2022-11-29T05:18:42.619Z,1004.9
2022-11-29T05:19:43.639Z,1004.9
2022-11-29T05:20:44.599Z,1004.9
2022-11-29T05:21:45.619Z,1004.9
2022-11-29T05:22:47.601Z,1005
2022-11-29T05:23:48.579Z,1004.9
2022-11-29T05:24:49.618Z,1004.9
2022-11-29T05:25:51.580Z,1004.9
2022-11-29T05:26:52.630Z,1005
2022-11-29T05:27:53.619Z,1005
2022-11-29T05:28:54.554Z,1004.9
2022-11-29T05:29:55.670Z,1005
2022-11-29T05:30:57.718Z,1005
2022-11-29T05:31:58.578Z,1005
2022-11-29T05:32:59.619Z,1004.9
2022-11-29T05:34:01.758Z,1004.5
2022-11-29T05:35:03.699Z,1004.8
2022-11-29T05:36:06.187Z,1004.9
2022-11-29T05:37:07.662Z,1004.9
2022-11-29T05:38:09.658Z,1004.7
2022-11-29T05:39:11.739Z,1004.9
2022-11-29T05:40:13.650Z,1005
2022-11-29T05:41:14.701Z,1005
2022-11-29T05:42:16.743Z,1005.1
2022-11-29T05:43:18.738Z,1005
2022-11-29T05:44:20.679Z,1005.1
2022-11-29T05:45:22.659Z,1005
2022-11-29T05:46:24.743Z,1005.1
2022-11-29T05:47:31.177Z,1005.1
2022-11-29T05:48:27.619Z,1005.1
2022-11-29T05:49:28.626Z,1005.1
2022-11-29T05:50:29.624Z,1005.1
2022-11-29T05:51:31.039Z,1005.1
2022-11-29T05:52:32.661Z,1004.7
2022-11-29T05:53:34.718Z,1005
2022-11-29T05:54:36.707Z,1004.9
2022-11-29T05:55:38.719Z,1005.1
2022-11-29T05:56:41.580Z,1005.1
2022-11-29T05:57:42.690Z,1005.2
2022-11-29T05:58:45.299Z,1005.2
2022-11-29T05:59:46.646Z,1005.2
2022-11-29T06:00:47.610Z,1004.8
2022-11-29T06:01:48.716Z,1005.1
2022-11-29T06:02:49.630Z,1005.2
2022-11-29T06:03:51.719Z,1005.2
2022-11-29T06:04:53.668Z,1005.2
2022-11-29T06:05:55.717Z,1005.2
2022-11-29T06:06:57.739Z,1005.2
2022-11-29T06:07:59.775Z,1005.2
2022-11-29T06:09:01.703Z,1005.3
2022-11-29T06:10:03.297Z,1005.3
2022-11-29T06:11:04.739Z,1005.3
2022-11-29T06:12:06.959Z,1005.3
2022-11-29T06:13:08.767Z,1005.3
2022-11-29T06:14:10.680Z,1005.3
2022-11-29T06:15:12.720Z,1005.3
2022-11-29T06:16:14.838Z,1005.4
2022-11-29T06:17:16.725Z,1005.5
2022-11-29T06:18:18.658Z,1005.4
2022-11-29T06:19:20.719Z,1005.4
2022-11-29T06:20:21.758Z,1005.4
2022-11-29T06:21:23.660Z,1005.4
2022-11-29T06:22:25.729Z,1005.4
2022-11-29T06:23:28.419Z,1005.5
2022-11-29T06:24:30.624Z,1005.4
2022-11-29T06:25:31.689Z,1005.4
2022-11-29T06:26:33.699Z,1005.4
2022-11-29T06:27:35.759Z,1005.4
2022-11-29T06:28:37.846Z,1005.4
2022-11-29T06:29:39.718Z,1005.5
2022-11-29T06:30:41.767Z,1005.4
2022-11-29T06:31:43.746Z,1005.5
2022-11-29T06:32:44.660Z,1005.5
2022-11-29T06:33:45.818Z,1005.5
2022-11-29T06:34:48.596Z,1005.5
2022-11-29T06:35:50.258Z,1004.8
2022-11-29T06:36:51.639Z,1005.3
2022-11-29T06:37:52.659Z,1005.5
2022-11-29T06:38:53.740Z,1005.6
2022-11-29T06:39:55.674Z,1005.5
2022-11-29T06:41:01.749Z,1005.5
2022-11-29T06:41:59.519Z,1005.5
2022-11-29T06:43:00.798Z,1005.6
2022-11-29T06:44:02.746Z,1005.5
2022-11-29T06:45:04.819Z,1005.6
2022-11-29T06:46:06.799Z,1005.6
2022-11-29T06:47:08.712Z,1005.6
2022-11-29T06:48:10.700Z,1005.6
2022-11-29T06:49:11.599Z,1005.6
2022-11-29T06:50:12.681Z,1005.7
2022-11-29T06:51:14.760Z,1005.6
2022-11-29T06:52:16.819Z,1005.6
2022-11-29T06:53:18.659Z,1005.6
2022-11-29T06:54:20.718Z,1005.7
2022-11-29T06:55:22.741Z,1005.6
2022-11-29T06:56:24.779Z,1005.7
2022-11-29T06:57:26.659Z,1005.7
2022-11-29T06:58:31.535Z,1005.4
2022-11-29T06:59:28.755Z,1005.6
2022-11-29T07:00:30.882Z,1005.7
2022-11-29T07:01:32.808Z,1005.7
2022-11-29T07:02:34.758Z,1005.7
2022-11-29T07:03:36.720Z,1005.7
2022-11-29T07:04:41.261Z,1005.7
2022-11-29T07:05:42.722Z,1005.7
2022-11-29T07:06:43.689Z,1005.7
2022-11-29T07:07:44.758Z,1005.6
2022-11-29T07:08:45.699Z,1005.7
2022-11-29T07:09:46.655Z,1005.7
2022-11-29T07:10:47.758Z,1005.6
2022-11-29T07:11:49.699Z,1005.7
2022-11-29T07:12:50.678Z,1005.6
2022-11-29T07:13:51.739Z,1005.6
2022-11-29T07:14:52.769Z,1005.6
2022-11-29T07:15:54.889Z,1005.7
2022-11-29T07:16:57.550Z,1005.8
2022-11-29T07:17:57.699Z,1005.7
2022-11-29T07:18:58.720Z,1005.7
2022-11-29T07:20:00.017Z,1005.7
2022-11-29T07:21:01.959Z,1005.7
2022-11-29T07:22:03.801Z,1005.6
2022-11-29T07:23:05.768Z,1005.7
2022-11-29T07:24:07.980Z,1005.7
2022-11-29T07:25:09.734Z,1005.7
2022-11-29T07:26:11.680Z,1005.8
2022-11-29T07:27:12.759Z,1005.7
2022-11-29T07:28:14.739Z,1005.7
2022-11-29T07:29:16.780Z,1005.6
2022-11-29T07:30:19.370Z,1005.7
2022-11-29T07:31:20.768Z,1005.7
2022-11-29T07:32:22.683Z,1005.6
2022-11-29T07:33:23.861Z,1005.7
2022-11-29T07:34:25.721Z,1005.7
2022-11-29T07:35:26.659Z,1005.7
2022-11-29T07:36:27.656Z,1005.7
2022-11-29T07:37:28.746Z,1005.7
2022-11-29T07:38:30.679Z,1005.8
2022-11-29T07:39:31.899Z,1005.7
2022-11-29T07:40:37.501Z,1005.7
2022-11-29T07:41:35.723Z,1005.5
2022-11-29T07:42:37.840Z,1005.7
2022-11-29T07:43:39.740Z,1005.7
2022-11-29T07:44:41.699Z,1005.8
2022-11-29T07:45:42.727Z,1005.8
2022-11-29T07:46:43.902Z,1005.8
2022-11-29T07:47:44.980Z,1005.8
2022-11-29T07:48:47.780Z,1005.8
2022-11-29T07:49:50.420Z,1005.8
2022-11-29T07:50:51.660Z,1005.8
2022-11-29T07:51:52.700Z,1005.8
2022-11-29T07:52:54.759Z,1005.8
2022-11-29T07:53:56.799Z,1005.7
2022-11-29T07:54:58.721Z,1005.9
2022-11-29T07:56:00.098Z,1005.8
2022-11-29T07:57:01.803Z,1005.8
2022-11-29T07:58:03.790Z,1005.8
2022-11-29T07:59:05.854Z,1005.8
2022-11-29T08:00:07.803Z,1005.8
2022-11-29T08:01:09.871Z,1005.8
2022-11-29T08:02:12.088Z,1005.8
2022-11-29T08:03:12.919Z,1005.8
2022-11-29T08:04:14.923Z,1005.9
2022-11-29T08:05:17.027Z,1005.8
2022-11-29T08:06:19.079Z,1005.8
2022-11-29T08:07:21.425Z,1005.9
2022-11-29T08:08:22.729Z,1005.8
2022-11-29T08:09:23.722Z,1005.2
2022-11-29T08:10:24.688Z,1005.7
2022-11-29T08:11:25.721Z,1005.8
2022-11-29T08:12:26.721Z,1005.9
2022-11-29T08:13:27.721Z,1005.9
2022-11-29T08:14:28.709Z,1006
2022-11-29T08:15:30.759Z,1005.9
2022-11-29T08:16:32.763Z,1005.9
2022-11-29T08:17:33.682Z,1006
2022-11-29T08:18:35.739Z,1006
2022-11-29T08:19:37.819Z,1006
2022-11-29T08:20:40.360Z,1006
2022-11-29T08:21:41.900Z,1005.9
2022-11-29T08:22:43.751Z,1005.9
2022-11-29T08:23:46.044Z,1005.9
2022-11-29T08:24:48.130Z,1005.9
2022-11-29T08:25:49.800Z,1006
2022-11-29T08:26:51.740Z,1006.1
2022-11-29T08:27:52.762Z,1006
2022-11-29T08:28:53.703Z,1006
2022-11-29T08:29:55.090Z,1006
2022-11-29T08:30:56.860Z,1006
2022-11-29T08:31:58.923Z,1006
2022-11-29T08:33:01.100Z,1006
2022-11-29T08:34:03.101Z,1006.1
2022-11-29T08:35:04.849Z,1006.1
2022-11-29T08:36:07.399Z,1005.8
2022-11-29T08:37:08.701Z,1006
2022-11-29T08:38:10.309Z,1006
2022-11-29T08:39:12.591Z,1006.1
2022-11-29T08:40:13.721Z,1006.1
2022-11-29T08:41:14.761Z,1006
2022-11-29T08:42:16.700Z,1005.3
2022-11-29T08:43:17.783Z,1005.9
2022-11-29T08:44:24.860Z,1006
2022-11-29T08:45:26.916Z,1006.1
2022-11-29T08:46:28.823Z,1006.1
2022-11-29T08:47:30.741Z,1006.1
2022-11-29T08:48:32.650Z,1006.1
2022-11-29T08:49:33.775Z,1006.1
2022-11-29T08:50:35.740Z,1006.1
2022-11-29T08:51:37.752Z,1006.1
2022-11-29T08:52:39.719Z,1006.1
2022-11-29T08:53:41.790Z,1006.1
2022-11-29T08:54:44.176Z,1006.1
2022-11-29T08:55:44.762Z,1006.2
2022-11-29T08:57:46.668Z,1006.2
2022-11-29T08:58:47.744Z,1006.1
2022-11-29T08:59:48.750Z,1006.1
2022-11-29T09:00:49.829Z,1006.1
2022-11-29T09:01:52.270Z,1006.1
2022-11-29T09:02:54.321Z,1006.1
2022-11-29T09:03:55.800Z,1006.2
2022-11-29T09:04:57.723Z,1006.1
2022-11-29T09:05:59.236Z,1006.2
2022-11-29T09:07:00.766Z,1006.2
2022-11-29T09:08:02.743Z,1006.2
2022-11-29T09:09:04.905Z,1006.2
2022-11-29T09:10:06.830Z,1006.2
2022-11-29T09:11:09.039Z,1006.2
2022-11-29T09:12:10.733Z,1006.2
2022-11-29T09:13:12.680Z,1006.3
2022-11-29T09:14:13.743Z,1006.2
2022-11-29T09:15:14.766Z,1006.2
2022-11-29T09:16:15.803Z,1006.2
2022-11-29T09:17:17.803Z,1006.2
2022-11-29T09:18:19.748Z,1006.3
2022-11-29T09:19:20.733Z,1006.2
2022-11-29T09:20:21.808Z,1006.2
2022-11-29T09:21:23.083Z,1006.2
2022-11-29T09:22:24.741Z,1006.2
2022-11-29T09:23:26.762Z,1006.3
2022-11-29T09:24:27.761Z,1006.3
2022-11-29T09:25:28.793Z,1006.2
2022-11-29T09:26:30.180Z,1006.3
2022-11-29T09:27:32.354Z,1006.3
2022-11-29T09:28:33.695Z,1006.3
2022-11-29T09:29:34.761Z,1006.3
2022-11-29T09:30:35.712Z,1006.3
2022-11-29T09:31:36.874Z,1006.3
2022-11-29T09:32:38.765Z,1006.3
2022-11-29T09:33:40.789Z,1006.3
2022-11-29T09:34:43.002Z,1006.3
2022-11-29T09:35:44.767Z,1006.2
2022-11-29T09:36:45.739Z,1006.3
2022-11-29T09:37:46.774Z,1006.2
2022-11-29T09:38:49.541Z,1006.2
2022-11-29T09:39:50.801Z,1006.2
2022-11-29T09:40:53.379Z,1006.2
2022-11-29T09:41:54.840Z,1006.2
2022-11-29T09:42:56.697Z,1006.2
2022-11-29T09:43:57.948Z,1006.2
2022-11-29T09:44:59.840Z,1006.2
2022-11-29T09:46:01.993Z,1006.2
2022-11-29T09:47:03.804Z,1006.2
2022-11-29T09:48:05.841Z,1006.2
2022-11-29T09:49:08.118Z,1006.1
2022-11-29T09:50:09.820Z,1006.2
2022-11-29T09:51:10.772Z,1006.3
2022-11-29T09:52:12.761Z,1006.3
2022-11-29T09:53:13.784Z,1006.2
2022-11-29T09:54:14.769Z,1006.3
2022-11-29T09:55:15.808Z,1006.3
2022-11-29T09:56:17.805Z,1005.6
2022-11-29T09:57:19.858Z,1006.1
2022-11-29T09:58:21.909Z,1006.2
2022-11-29T09:59:23.739Z,1006.2
2022-11-29T10:00:24.840Z,1006.2
2022-11-29T10:01:26.937Z,1006.2
2022-11-29T10:02:28.917Z,1006.2
2022-11-29T10:03:29.807Z,1006.2
2022-11-29T10:04:30.890Z,1006.2
2022-11-29T10:05:32.779Z,1006.2
2022-11-29T10:06:33.727Z,1006.3
2022-11-29T10:07:34.898Z,1006.2
2022-11-29T10:08:36.800Z,1006.2
2022-11-29T10:09:38.739Z,1006.2
2022-11-29T10:10:40.801Z,1006.3
2022-11-29T10:11:42.800Z,1006.2
2022-11-29T10:12:44.820Z,1006.2
2022-11-29T10:13:47.120Z,1006.2
2022-11-29T10:14:49.710Z,1006.4
2022-11-29T10:15:51.880Z,1006.3
2022-11-29T10:16:53.796Z,1006.3
2022-11-29T10:17:54.760Z,1006.3
2022-11-29T10:18:55.860Z,1006.3
2022-11-29T10:19:57.788Z,1006.2
2022-11-29T10:20:58.838Z,1006.2
2022-11-29T10:21:59.805Z,1006.2
2022-11-29T10:23:00.821Z,1006.2
2022-11-29T10:24:03.321Z,1006.2
2022-11-29T10:25:04.838Z,1006.2
2022-11-29T10:26:06.800Z,1006.2
2022-11-29T10:27:07.799Z,1005.9
2022-11-29T10:28:08.787Z,1006.1
2022-11-29T10:29:10.117Z,1006.1
2022-11-29T10:30:11.834Z,1006.2
2022-11-29T10:31:13.855Z,1006.3
2022-11-29T10:32:14.800Z,1006.2
2022-11-29T10:33:16.778Z,1006.3
2022-11-29T10:34:18.800Z,1006.2
2022-11-29T10:35:19.823Z,1006.2
2022-11-29T10:36:20.862Z,1006.3
2022-11-29T10:37:22.860Z,1006.2
2022-11-29T10:38:32.336Z,1006.2
2022-11-29T10:39:26.861Z,1006.3
2022-11-29T10:40:28.819Z,1006.3
2022-11-29T10:41:29.780Z,1006.2
2022-11-29T10:42:30.779Z,1006.2
2022-11-29T10:43:31.799Z,1006.2
2022-11-29T10:44:33.869Z,1005.8
2022-11-29T10:45:35.959Z,1006.2
2022-11-29T10:46:37.919Z,1006.2
2022-11-29T10:47:39.828Z,1006.2
2022-11-29T10:48:40.827Z,1006.3
2022-11-29T10:49:42.799Z,1006.2
2022-11-29T10:50:43.809Z,1006.2
2022-11-29T10:51:44.779Z,1006.2
2022-11-29T10:52:45.900Z,1006.3
2022-11-29T10:53:47.878Z,1006.2
2022-11-29T10:54:49.784Z,1006.2
2022-11-29T10:55:50.877Z,1006.2
2022-11-29T10:56:51.760Z,1006.2
2022-11-29T10:57:52.819Z,1006.2
2022-11-29T10:58:54.140Z,1006.2
2022-11-29T10:59:56.138Z,1006.2
2022-11-29T11:00:57.928Z,1006.2
2022-11-29T11:01:59.822Z,1006.2
2022-11-29T11:03:00.767Z,1006.2
2022-11-29T11:04:01.959Z,1005.9
2022-11-29T11:05:03.838Z,1006.1
2022-11-29T11:06:04.906Z,1006.2
2022-11-29T11:07:06.879Z,1006.2
2022-11-29T11:08:08.860Z,1006.2
2022-11-29T11:09:09.779Z,1006.2
2022-11-29T11:10:11.839Z,1006.1
2022-11-29T11:11:13.782Z,1006.2
2022-11-29T11:12:14.860Z,1006.1
2022-11-29T11:13:16.864Z,1006.1
2022-11-29T11:14:19.562Z,1006.1
2022-11-29T11:15:21.746Z,1006.1
2022-11-29T11:16:23.162Z,1006.2
2022-11-29T11:17:24.901Z,1006.2
2022-11-29T11:18:27.488Z,1006.1
2022-11-29T11:19:28.907Z,1006.1
2022-11-29T11:20:31.464Z,1006.1
2022-11-29T11:21:33.428Z,1006.1
2022-11-29T11:22:36.019Z,1006.2
2022-11-29T11:23:42.484Z,1006.1
2022-11-29T11:24:40.103Z,1006.1
2022-11-29T11:25:41.781Z,1006.1
2022-11-29T11:26:42.841Z,1006.1
2022-11-29T11:27:43.885Z,1006.2
2022-11-29T11:28:44.940Z,1006.2
2022-11-29T11:29:48.192Z,1006.2
2022-11-29T11:30:50.304Z,1006.2
2022-11-29T11:31:51.889Z,1006.2
2022-11-29T11:32:53.819Z,1006.1
2022-11-29T11:33:54.879Z,1006.2
2022-11-29T11:34:56.881Z,1005.5
2022-11-29T11:35:58.780Z,1006
2022-11-29T11:37:00.224Z,1006.1
2022-11-29T11:38:01.840Z,1006.1
2022-11-29T11:39:02.890Z,1006.2
2022-11-29T11:40:04.915Z,1006.2
2022-11-29T11:41:06.887Z,1006.2
2022-11-29T11:42:08.861Z,1006.2
2022-11-29T11:43:10.860Z,1006.2
2022-11-29T11:44:15.195Z,1006.2
2022-11-29T11:45:14.867Z,1006.2
2022-11-29T11:46:18.056Z,1006.2
2022-11-29T11:47:18.160Z,1006.2
2022-11-29T11:48:19.869Z,1006.2
2022-11-29T11:49:22.227Z,1006.2
2022-11-29T11:50:23.821Z,1006.2
2022-11-29T11:51:25.039Z,1006.2
2022-11-29T11:52:27.037Z,1006.2
2022-11-29T11:53:28.803Z,1006.2
2022-11-29T11:54:29.927Z,1006.2
2022-11-29T11:55:31.827Z,1006.2
2022-11-29T11:56:33.861Z,1006.2
2022-11-29T11:57:35.960Z,1006.3
2022-11-29T11:58:37.860Z,1006.2
2022-11-29T11:59:38.860Z,1006.3
2022-11-29T12:01:02.733Z,1006.3
2022-11-29T12:01:41.900Z,1006.3
2022-11-29T12:02:43.914Z,1006.3
2022-11-29T12:03:45.908Z,1006.3
2022-11-29T12:04:47.952Z,1006.3
2022-11-29T12:05:49.880Z,1006.3
2022-11-29T12:06:52.323Z,1006.3
2022-11-29T12:08:09.558Z,1006.3
2022-11-29T12:08:55.820Z,1006.3
2022-11-29T12:09:56.984Z,1006.4
2022-11-29T12:11:01.544Z,1006.4
2022-11-29T12:12:00.819Z,1006.4
2022-11-29T12:13:01.900Z,1006.4
2022-11-29T12:14:03.900Z,1006.4
2022-11-29T12:15:04.867Z,1006.4
2022-11-29T12:16:05.884Z,1006.4
2022-11-29T12:17:06.940Z,1006.4
2022-11-29T12:18:08.800Z,1006.4
2022-11-29T12:19:09.812Z,1006.4
2022-11-29T12:20:10.879Z,1006.4
2022-11-29T12:21:11.861Z,1006.4
2022-11-29T12:22:12.828Z,1006.4
2022-11-29T12:23:14.383Z,1006.5
2022-11-29T12:24:15.840Z,1006.4
2022-11-29T12:25:18.259Z,1006.4
2022-11-29T12:26:48.765Z,1006.4
2022-11-29T12:27:21.861Z,1006.4
2022-11-29T12:28:22.865Z,1006.4
2022-11-29T12:29:23.829Z,1006.4
2022-11-29T12:30:25.400Z,1006.4
2022-11-29T12:31:26.956Z,1006.3
2022-11-29T12:32:28.879Z,1006.3
2022-11-29T12:33:30.859Z,1006.4
2022-11-29T12:34:33.259Z,1006.3
2022-11-29T12:35:35.339Z,1006.4
2022-11-29T12:36:36.920Z,1006.4
2022-11-29T12:37:38.939Z,1006.4
2022-11-29T12:38:41.007Z,1006.4
2022-11-29T12:39:42.865Z,1006
2022-11-29T12:40:43.893Z,1006.3
2022-11-29T12:41:49.572Z,1006.3
2022-11-29T12:42:47.884Z,1006.3
2022-11-29T12:43:49.920Z,1006.4
2022-11-29T12:44:51.887Z,1006.4
2022-11-29T12:45:53.862Z,1006.4
2022-11-29T12:47:07.276Z,1006.4
2022-11-29T12:47:56.882Z,1006.4
2022-11-29T12:48:58.900Z,1006.4
2022-11-29T12:50:00.981Z,1006.4
2022-11-29T12:51:02.940Z,1006.5
2022-11-29T12:52:04.920Z,1006.5
2022-11-29T12:53:06.840Z,1006.5
2022-11-29T12:54:08.893Z,1006.4
2022-11-29T12:55:11.203Z,1006.5